Time,TemperatureF,DewpointF,PressureIn,WindDirection,WindDirectionDegrees,WindSpeedMPH,WindSpeedGustMPH,Humidity,HourlyPrecipIn,Conditions,Clouds,dailyrainin,SolarRadiationWatts/m^2,SoftwareType,DateUTC
2013-08-22 00:00:00,73.3,68.5,30.01,South,169,3.0,4.0,85,0.00,,,0.00,0,Wunderground v.1.15,2013-08-22 05:00:00,
2013-08-22 00:05:00,73.4,68.6,30.01,South,169,3.0,4.0,85,0.00,,,0.00,0,Wunderground v.1.15,2013-08-22 05:05:00,
2013-08-22 00:15:00,73.4,68.6,30.01,South,172,3.0,7.0,85,0.00,,,0.00,0,Wunderground v.1.15,2013-08-22 05:15:00,
2013-08-22 00:20:00,73.3,68.5,30.01,South,173,3.0,5.0,85,0.00,,,0.00,0,Wunderground v.1.15,2013-08-22 05:20:00,
2013-08-22 00:25:00,73.0,68.2,30.00,South,173,4.0,5.0,85,0.00,,,0.00,0,Wunderground v.1.15,2013-08-22 05:25:00,
2013-08-22 00:30:00,72.6,68.2,30.01,South,173,4.0,4.0,86,0.00,,,0.00,0,Wunderground v.1.15,2013-08-22 05:30:00,
2013-08-22 00:35:00,72.3,67.9,30.00,South,173,3.0,4.0,86,0.00,,,0.00,0,Wunderground v.1.15,2013-08-22 05:35:00,
2013-08-22 00:40:00,72.0,67.9,30.01,South,173,3.0,3.0,87,0.00,,,0.00,0,Wunderground v.1.15,2013-08-22 05:40:00,
2013-08-22 00:50:00,71.5,67.8,30.00,South,173,3.0,4.0,88,0.00,,,0.00,0,Wunderground v.1.15,2013-08-22 05:50:00,
2013-08-22 00:55:00,71.3,67.6,30.00,South,173,3.0,4.0,88,0.00,,,0.00,0,Wunderground v.1.15,2013-08-22 05:55:00,
2013-08-22 01:00:00,71.2,67.8,30.01,South,173,3.0,3.0,89,0.00,,,0.00,0,Wunderground v.1.15,2013-08-22 06:00:00,
2013-08-22 01:05:00,71.1,67.7,30.01,South,173,2.0,3.0,89,0.00,,,0.00,0,Wunderground v.1.15,2013-08-22 06:05:00,
2013-08-22 01:10:00,71.0,67.6,30.01,South,173,1.0,1.0,89,0.00,,,0.00,0,Wunderground v.1.15,2013-08-22 06:10:00,
2013-08-22 01:20:00,70.8,67.4,30.01,South,173,0.0,0.0,89,0.00,,,0.00,0,Wunderground v.1.15,2013-08-22 06:20:00,
2013-08-22 01:25:00,70.7,67.3,30.01,South,173,0.0,0.0,89,0.00,,,0.00,0,Wunderground v.1.15,2013-08-22 06:25:00,
2013-08-22 01:30:00,70.5,67.1,30.01,South,173,0.0,0.0,89,0.00,,,0.00,0,Wunderground v.1.15,2013-08-22 06:30:00,
2013-08-22 01:35:00,70.3,66.9,30.01,South,173,0.0,1.0,89,0.00,,,0.00,0,Wunderground v.1.15,2013-08-22 06:35:00,
2013-08-22 01:40:00,70.1,67.0,30.01,South,173,1.0,2.0,90,0.00,,,0.00,0,Wunderground v.1.15,2013-08-22 06:40:00,
2013-08-22 01:45:00,70.0,66.9,30.00,South,173,2.0,3.0,90,0.00,,,0.00,0,Wunderground v.1.15,2013-08-22 06:45:00,
2013-08-22 01:55:00,69.7,67.0,30.00,South,173,2.0,3.0,91,0.00,,,0.00,0,Wunderground v.1.15,2013-08-22 06:55:00,
2013-08-22 02:00:00,69.6,66.9,30.00,South,173,3.0,4.0,91,0.00,,,0.00,0,Wunderground v.1.15,2013-08-22 07:00:00,
2013-08-22 02:10:00,69.5,66.8,30.00,South,173,3.0,3.0,91,0.00,,,0.00,0,Wunderground v.1.15,2013-08-22 07:10:00,
2013-08-22 02:15:00,69.5,66.8,30.00,South,173,3.0,3.0,91,0.00,,,0.00,0,Wunderground v.1.15,2013-08-22 07:15:00,
2013-08-22 02:20:00,69.5,67.1,30.00,South,173,3.0,3.0,92,0.00,,,0.00,0,Wunderground v.1.15,2013-08-22 07:20:00,
2013-08-22 02:25:00,69.5,67.1,30.00,South,173,2.0,3.0,92,0.00,,,0.00,0,Wunderground v.1.15,2013-08-22 07:25:00,
2013-08-22 02:30:00,69.4,67.0,30.00,South,173,2.0,2.0,92,0.00,,,0.00,0,Wunderground v.1.15,2013-08-22 07:30:00,
2013-08-22 02:35:00,69.3,66.9,30.00,South,173,1.0,2.0,92,0.00,,,0.00,0,Wunderground v.1.15,2013-08-22 07:35:00,
2013-08-22 02:40:00,69.1,66.7,30.00,South,173,1.0,1.0,92,0.00,,,0.00,0,Wunderground v.1.15,2013-08-22 07:40:00,
2013-08-22 02:45:00,69.0,66.6,30.01,South,173,1.0,2.0,92,0.00,,,0.00,0,Wunderground v.1.15,2013-08-22 07:45:00,
2013-08-22 02:50:00,68.8,66.4,30.01,South,173,1.0,1.0,92,0.00,,,0.00,0,Wunderground v.1.15,2013-08-22 07:50:00,
2013-08-22 03:00:00,68.5,66.1,30.01,South,173,0.0,0.0,92,0.00,,,0.00,0,Wunderground v.1.15,2013-08-22 08:00:00,
2013-08-22 03:10:00,68.4,66.0,30.01,South,173,0.0,0.0,92,0.00,,,0.00,0,Wunderground v.1.15,2013-08-22 08:10:00,
2013-08-22 03:15:00,68.3,66.2,30.02,South,173,0.0,0.0,93,0.00,,,0.00,0,Wunderground v.1.15,2013-08-22 08:15:00,
2013-08-22 03:20:00,68.3,66.2,30.02,South,173,0.0,0.0,93,0.00,,,0.00,0,Wunderground v.1.15,2013-08-22 08:20:00,
2013-08-22 03:25:00,68.1,66.0,30.02,South,173,0.0,0.0,93,0.00,,,0.00,0,Wunderground v.1.15,2013-08-22 08:25:00,
2013-08-22 03:30:00,68.0,65.9,30.03,South,173,0.0,0.0,93,0.00,,,0.00,0,Wunderground v.1.15,2013-08-22 08:30:00,
2013-08-22 03:35:00,67.9,65.8,30.02,South,173,0.0,2.0,93,0.00,,,0.00,0,Wunderground v.1.15,2013-08-22 08:35:00,
2013-08-22 03:40:00,67.9,65.8,30.02,South,173,1.0,2.0,93,0.00,,,0.00,0,Wunderground v.1.15,2013-08-22 08:40:00,
2013-08-22 03:45:00,68.0,66.2,30.02,South,173,2.0,2.0,94,0.00,,,0.00,0,Wunderground v.1.15,2013-08-22 08:45:00,
2013-08-22 03:50:00,68.0,66.5,30.02,South,173,2.0,2.0,95,0.00,,,0.00,0,Wunderground v.1.15,2013-08-22 08:50:00,
2013-08-22 03:55:00,67.9,66.1,30.02,South,173,1.0,2.0,94,0.00,,,0.00,0,Wunderground v.1.15,2013-08-22 08:55:00,
2013-08-22 04:05:00,67.8,66.0,30.01,South,173,0.0,1.0,94,0.00,,,0.00,0,Wunderground v.1.15,2013-08-22 09:05:00,
2013-08-22 04:10:00,67.6,65.8,30.01,South,173,1.0,2.0,94,0.00,,,0.00,0,Wunderground v.1.15,2013-08-22 09:10:00,
2013-08-22 04:15:00,67.5,65.7,30.01,South,173,1.0,2.0,94,0.00,,,0.00,0,Wunderground v.1.15,2013-08-22 09:15:00,
2013-08-22 04:20:00,67.4,65.6,30.01,South,173,1.0,1.0,94,0.00,,,0.00,0,Wunderground v.1.15,2013-08-22 09:20:00,
2013-08-22 04:25:00,67.3,65.5,30.01,South,173,0.0,1.0,94,0.00,,,0.00,0,Wunderground v.1.15,2013-08-22 09:25:00,
2013-08-22 04:30:00,67.2,65.4,30.01,South,173,0.0,0.0,94,0.00,,,0.00,0,Wunderground v.1.15,2013-08-22 09:30:00,
2013-08-22 04:35:00,67.1,65.3,30.01,South,173,0.0,0.0,94,0.00,,,0.00,0,Wunderground v.1.15,2013-08-22 09:35:00,
2013-08-22 04:40:00,67.1,65.3,30.00,South,173,0.0,0.0,94,0.00,,,0.00,0,Wunderground v.1.15,2013-08-22 09:40:00,
2013-08-22 04:45:00,67.1,65.3,30.00,South,173,0.0,0.0,94,0.00,,,0.00,0,Wunderground v.1.15,2013-08-22 09:45:00,
2013-08-22 04:50:00,67.1,65.3,30.00,South,173,0.0,0.0,94,0.00,,,0.00,0,Wunderground v.1.15,2013-08-22 09:50:00,
2013-08-22 04:55:00,67.0,65.2,30.00,South,173,0.0,0.0,94,0.00,,,0.00,0,Wunderground v.1.15,2013-08-22 09:55:00,
2013-08-22 05:00:00,67.1,65.6,30.00,South,173,0.0,0.0,95,0.00,,,0.00,0,Wunderground v.1.15,2013-08-22 10:00:00,
2013-08-22 05:10:00,66.9,65.1,30.00,South,173,0.0,0.0,94,0.00,,,0.00,0,Wunderground v.1.15,2013-08-22 10:10:00,
2013-08-22 05:15:00,66.8,65.0,30.00,South,173,0.0,0.0,94,0.00,,,0.00,0,Wunderground v.1.15,2013-08-22 10:15:00,
2013-08-22 05:20:00,66.6,64.8,30.00,South,173,0.0,0.0,94,0.00,,,0.00,0,Wunderground v.1.15,2013-08-22 10:20:00,
2013-08-22 05:25:00,66.5,64.7,30.00,South,173,0.0,0.0,94,0.00,,,0.00,0,Wunderground v.1.15,2013-08-22 10:25:00,
2013-08-22 05:30:00,66.5,64.7,30.00,South,173,0.0,0.0,94,0.00,,,0.00,0,Wunderground v.1.15,2013-08-22 10:30:00,
2013-08-22 05:35:00,66.5,64.7,30.00,South,173,0.0,0.0,94,0.00,,,0.00,0,Wunderground v.1.15,2013-08-22 10:35:00,
2013-08-22 05:40:00,66.4,64.6,30.01,South,173,0.0,0.0,94,0.00,,,0.00,0,Wunderground v.1.15,2013-08-22 10:40:00,
2013-08-22 05:45:00,66.4,64.6,30.01,South,173,0.0,0.0,94,0.00,,,0.00,0,Wunderground v.1.15,2013-08-22 10:45:00,
2013-08-22 07:30:00,68.1,66.9,30.03,South,173,3.0,3.0,96,0.00,,,0.00,91,Wunderground v.1.15,2013-08-22 12:30:00,
2013-08-22 07:40:00,68.6,67.4,30.03,South,173,2.0,2.0,96,0.00,,,0.00,113,Wunderground v.1.15,2013-08-22 12:40:00,
2013-08-22 07:45:00,68.9,67.7,30.03,South,173,3.0,3.0,96,0.00,,,0.00,125,Wunderground v.1.15,2013-08-22 12:45:00,
2013-08-22 07:50:00,69.2,68.0,30.03,South,173,2.0,2.0,96,0.00,,,0.00,178,Wunderground v.1.15,2013-08-22 12:50:00,
2013-08-22 07:55:00,69.6,68.4,30.03,South,173,2.0,3.0,96,0.00,,,0.00,244,Wunderground v.1.15,2013-08-22 12:55:00,
2013-08-22 08:00:00,70.1,68.9,30.04,South,173,3.0,3.0,96,0.00,,,0.00,255,Wunderground v.1.15,2013-08-22 13:00:00,
2013-08-22 08:05:00,70.6,69.4,30.04,South,173,4.0,5.0,96,0.00,,,0.00,165,Wunderground v.1.15,2013-08-22 13:05:00,
2013-08-22 08:10:00,71.1,69.6,30.03,South,173,4.0,4.0,95,0.00,,,0.00,165,Wunderground v.1.15,2013-08-22 13:10:00,
2013-08-22 08:15:00,71.6,69.8,30.03,South,173,4.0,4.0,94,0.00,,,0.00,204,Wunderground v.1.15,2013-08-22 13:15:00,
2013-08-22 08:20:00,72.0,69.9,30.03,South,173,4.0,5.0,93,0.00,,,0.00,218,Wunderground v.1.15,2013-08-22 13:20:00,
2013-08-22 08:25:00,72.5,70.0,30.03,South,175,4.0,5.0,92,0.00,,,0.00,281,Wunderground v.1.15,2013-08-22 13:25:00,
2013-08-22 08:30:00,73.1,70.6,30.03,South,178,4.0,7.0,92,0.00,,,0.00,327,Wunderground v.1.15,2013-08-22 13:30:00,
2013-08-22 08:35:00,73.7,70.6,30.03,SW,224,5.0,7.0,90,0.00,,,0.00,381,Wunderground v.1.15,2013-08-22 13:35:00,
2013-08-22 08:45:00,75.0,71.2,30.04,WSW,251,6.0,9.0,88,0.00,,,0.00,288,Wunderground v.1.15,2013-08-22 13:45:00,
2013-08-22 08:50:00,75.5,71.0,30.04,WSW,247,6.0,6.0,86,0.00,,,0.00,334,Wunderground v.1.15,2013-08-22 13:50:00,
2013-08-22 08:55:00,75.9,71.4,30.04,WSW,244,6.0,8.0,86,0.00,,,0.00,353,Wunderground v.1.15,2013-08-22 13:55:00,
2013-08-22 09:00:00,76.2,71.7,30.04,WSW,244,5.0,5.0,86,0.00,,,0.00,360,Wunderground v.1.15,2013-08-22 14:00:00,
2013-08-22 09:10:00,76.8,71.6,30.04,WSW,244,4.0,4.0,84,0.00,,,0.00,297,Wunderground v.1.15,2013-08-22 14:10:00,
2013-08-22 09:15:00,77.1,72.2,30.04,WSW,243,4.0,5.0,85,0.00,,,0.00,323,Wunderground v.1.15,2013-08-22 14:15:00,
2013-08-22 09:20:00,77.3,72.1,30.04,WSW,243,4.0,4.0,84,0.00,,,0.00,427,Wunderground v.1.15,2013-08-22 14:20:00,
2013-08-22 09:25:00,77.6,72.7,30.04,WSW,243,4.0,4.0,85,0.00,,,0.00,239,Wunderground v.1.15,2013-08-22 14:25:00,
2013-08-22 09:30:00,77.9,73.0,30.04,WSW,243,4.0,4.0,85,0.00,,,0.00,262,Wunderground v.1.15,2013-08-22 14:30:00,
2013-08-22 09:35:00,78.0,72.4,30.04,WSW,257,4.0,4.0,83,0.00,,,0.00,318,Wunderground v.1.15,2013-08-22 14:35:00,
2013-08-22 09:40:00,78.1,72.9,30.04,WSW,255,5.0,5.0,84,0.00,,,0.00,388,Wunderground v.1.15,2013-08-22 14:40:00,
2013-08-22 09:50:00,78.5,72.9,30.04,WSW,250,5.0,7.0,83,0.00,,,0.00,394,Wunderground v.1.15,2013-08-22 14:50:00,
2013-08-22 09:55:00,78.6,72.6,30.03,West,263,6.0,8.0,82,0.00,,,0.00,529,Wunderground v.1.15,2013-08-22 14:55:00,
2013-08-22 10:00:00,78.7,72.4,30.03,WSW,256,7.0,7.0,81,0.00,,,0.00,469,Wunderground v.1.15,2013-08-22 15:00:00,
2013-08-22 10:10:00,79.1,72.8,30.03,WSW,258,6.0,7.0,81,0.00,,,0.00,459,Wunderground v.1.15,2013-08-22 15:10:00,
2013-08-22 10:15:00,79.3,73.0,30.03,WSW,242,6.0,9.0,81,0.00,,,0.00,541,Wunderground v.1.15,2013-08-22 15:15:00,
2013-08-22 10:20:00,79.4,72.3,30.03,West,275,6.0,6.0,79,0.00,,,0.00,448,Wunderground v.1.15,2013-08-22 15:20:00,
2013-08-22 10:25:00,79.4,72.3,30.04,West,280,6.0,6.0,79,0.00,,,0.00,373,Wunderground v.1.15,2013-08-22 15:25:00,
2013-08-22 10:30:00,79.4,72.7,30.04,West,277,6.0,7.0,80,0.00,,,0.00,355,Wunderground v.1.15,2013-08-22 15:30:00,
2013-08-22 10:35:00,79.3,72.6,30.05,West,281,5.0,7.0,80,0.00,,,0.00,427,Wunderground v.1.15,2013-08-22 15:35:00,
2013-08-22 10:40:00,79.4,73.1,30.05,WNW,286,5.0,5.0,81,0.00,,,0.00,534,Wunderground v.1.15,2013-08-22 15:40:00,
2013-08-22 10:45:00,79.5,72.4,30.05,WNW,302,5.0,7.0,79,0.00,,,0.00,541,Wunderground v.1.15,2013-08-22 15:45:00,
2013-08-22 10:55:00,80.0,72.9,30.05,WNW,302,6.0,6.0,79,0.00,,,0.00,719,Wunderground v.1.15,2013-08-22 15:55:00,
2013-08-22 11:00:00,80.3,73.9,30.06,WNW,300,6.0,6.0,81,0.00,,,0.00,726,Wunderground v.1.15,2013-08-22 16:00:00,
2013-08-22 11:10:00,80.8,73.3,30.05,WNW,302,7.0,8.0,78,0.00,,,0.00,468,Wunderground v.1.15,2013-08-22 16:10:00,
2013-08-22 11:15:00,80.8,74.0,30.06,NW,311,6.0,8.0,80,0.00,,,0.00,420,Wunderground v.1.15,2013-08-22 16:15:00,
2013-08-22 11:20:00,80.9,73.8,30.06,NW,309,5.0,6.0,79,0.00,,,0.00,515,Wunderground v.1.15,2013-08-22 16:20:00,
2013-08-22 11:25:00,81.1,73.6,30.05,NW,316,4.0,6.0,78,0.00,,,0.00,527,Wunderground v.1.15,2013-08-22 16:25:00,
2013-08-22 11:30:00,81.3,74.2,30.06,NW,313,4.0,4.0,79,0.00,,,0.00,508,Wunderground v.1.15,2013-08-22 16:30:00,
2013-08-22 11:35:00,81.4,73.5,30.06,NW,315,4.0,4.0,77,0.00,,,0.00,554,Wunderground v.1.15,2013-08-22 16:35:00,
2013-08-22 11:40:00,81.6,73.7,30.06,NW,314,4.0,5.0,77,0.00,,,0.00,670,Wunderground v.1.15,2013-08-22 16:40:00,
2013-08-22 11:45:00,81.9,74.0,30.06,NW,315,3.0,5.0,77,0.00,,,0.00,779,Wunderground v.1.15,2013-08-22 16:45:00,
2013-08-22 11:50:00,82.4,74.1,30.05,NW,315,2.0,2.0,76,0.00,,,0.00,830,Wunderground v.1.15,2013-08-22 16:50:00,
2013-08-22 12:00:00,83.8,75.0,30.05,North,355,2.0,3.0,75,0.00,,,0.00,650,Wunderground v.1.15,2013-08-22 17:00:00,
2013-08-22 12:10:00,84.7,75.9,30.05,North,351,1.0,2.0,75,0.00,,,0.00,729,Wunderground v.1.15,2013-08-22 17:10:00,
2013-08-22 12:15:00,84.8,74.8,30.04,North,351,2.0,2.0,72,0.00,,,0.00,503,Wunderground v.1.15,2013-08-22 17:15:00,
2013-08-22 12:20:00,84.9,74.9,30.04,North,355,2.0,4.0,72,0.00,,,0.00,728,Wunderground v.1.15,2013-08-22 17:20:00,
2013-08-22 12:25:00,84.9,74.4,30.05,NNW,348,2.0,4.0,71,0.00,,,0.00,341,Wunderground v.1.15,2013-08-22 17:25:00,
2013-08-22 12:30:00,84.5,74.1,30.05,North,355,2.0,4.0,71,0.00,,,0.00,272,Wunderground v.1.15,2013-08-22 17:30:00,
2013-08-22 12:35:00,83.8,74.2,30.05,North,9,3.0,4.0,73,0.00,,,0.00,330,Wunderground v.1.15,2013-08-22 17:35:00,
2013-08-22 12:40:00,83.6,74.8,30.04,North,9,2.0,2.0,75,0.00,,,0.00,341,Wunderground v.1.15,2013-08-22 17:40:00,
2013-08-22 12:45:00,83.4,74.6,30.05,North,9,1.0,2.0,75,0.00,,,0.00,262,Wunderground v.1.15,2013-08-22 17:45:00,
2013-08-22 12:50:00,83.2,74.0,30.05,North,5,1.0,1.0,74,0.00,,,0.00,193,Wunderground v.1.15,2013-08-22 17:50:00,
2013-08-22 12:55:00,82.8,74.1,30.04,North,355,2.0,3.0,75,0.00,,,0.00,283,Wunderground v.1.15,2013-08-22 17:55:00,
2013-08-22 13:05:00,82.0,73.3,30.05,ENE,63,3.0,4.0,75,0.00,,,0.00,221,Wunderground v.1.15,2013-08-22 18:05:00,
2013-08-22 13:10:00,81.5,72.8,30.05,ENE,66,4.0,4.0,75,0.00,,,0.00,260,Wunderground v.1.15,2013-08-22 18:10:00,
2013-08-22 13:15:00,81.3,73.4,30.05,NE,36,3.0,4.0,77,0.00,,,0.00,260,Wunderground v.1.15,2013-08-22 18:15:00,
2013-08-22 13:20:00,81.1,72.8,30.05,NNE,18,3.0,3.0,76,0.00,,,0.00,267,Wunderground v.1.15,2013-08-22 18:20:00,
2013-08-22 13:25:00,81.1,73.2,30.05,NNE,19,2.0,3.0,77,0.00,,,0.00,302,Wunderground v.1.15,2013-08-22 18:25:00,
2013-08-22 13:30:00,81.0,73.1,30.05,NE,38,2.0,3.0,77,0.00,,,0.00,308,Wunderground v.1.15,2013-08-22 18:30:00,
2013-08-22 13:35:00,80.8,72.9,30.05,NE,52,3.0,3.0,77,0.00,,,0.00,323,Wunderground v.1.15,2013-08-22 18:35:00,
2013-08-22 13:40:00,80.5,72.6,30.05,ENE,67,4.0,4.0,77,0.00,,,0.00,360,Wunderground v.1.15,2013-08-22 18:40:00,
2013-08-22 13:45:00,80.4,72.9,30.05,ENE,65,4.0,9.0,78,0.00,,,0.00,376,Wunderground v.1.15,2013-08-22 18:45:00,
2013-08-22 13:50:00,80.5,73.0,30.05,ENE,78,3.0,4.0,78,0.00,,,0.00,385,Wunderground v.1.15,2013-08-22 18:50:00,
2013-08-22 13:55:00,80.5,73.0,30.05,ENE,68,3.0,6.0,78,0.00,,,0.00,339,Wunderground v.1.15,2013-08-22 18:55:00,
2013-08-22 14:05:00,80.3,73.2,30.05,East,84,4.0,6.0,79,0.00,,,0.00,279,Wunderground v.1.15,2013-08-22 19:05:00,
2013-08-22 14:10:00,80.1,73.0,30.04,East,79,5.0,5.0,79,0.00,,,0.00,253,Wunderground v.1.15,2013-08-22 19:10:00,
2013-08-22 14:15:00,79.8,72.3,30.04,East,87,6.0,6.0,78,0.00,,,0.00,251,Wunderground v.1.15,2013-08-22 19:15:00,
2013-08-22 14:20:00,79.6,72.9,30.04,ESE,103,6.0,6.0,80,0.00,,,0.00,248,Wunderground v.1.15,2013-08-22 19:20:00,
2013-08-22 14:25:00,79.5,72.8,30.04,ENE,76,6.0,6.0,80,0.00,,,0.00,271,Wunderground v.1.15,2013-08-22 19:25:00,
2013-08-22 14:30:00,79.4,72.7,30.04,East,83,6.0,6.0,80,0.00,,,0.00,279,Wunderground v.1.15,2013-08-22 19:30:00,
2013-08-22 14:35:00,79.4,73.1,30.04,East,98,6.0,7.0,81,0.00,,,0.00,260,Wunderground v.1.15,2013-08-22 19:35:00,
2013-08-22 14:45:00,79.5,73.2,30.03,East,94,7.0,7.0,81,0.00,,,0.00,265,Wunderground v.1.15,2013-08-22 19:45:00,
2013-08-22 14:50:00,79.6,73.3,30.03,ESE,103,6.0,6.0,81,0.00,,,0.00,306,Wunderground v.1.15,2013-08-22 19:50:00,
2013-08-22 14:55:00,79.7,72.6,30.03,ESE,104,7.0,7.0,79,0.00,,,0.00,385,Wunderground v.1.15,2013-08-22 19:55:00,
2013-08-22 15:00:00,79.9,72.4,30.03,ESE,109,8.0,10.0,78,0.00,,,0.00,374,Wunderground v.1.15,2013-08-22 20:00:00,
2013-08-22 15:10:00,79.9,72.0,30.02,ESE,106,10.0,10.0,77,0.00,,,0.00,316,Wunderground v.1.15,2013-08-22 20:10:00,
2013-08-22 15:15:00,79.9,72.4,30.01,ESE,103,9.0,10.0,78,0.00,,,0.00,329,Wunderground v.1.15,2013-08-22 20:15:00,
2013-08-22 15:20:00,79.9,72.8,30.01,ESE,106,10.0,10.0,79,0.00,,,0.00,323,Wunderground v.1.15,2013-08-22 20:20:00,
2013-08-22 15:25:00,79.9,72.4,30.01,ESE,115,9.0,13.0,78,0.00,,,0.00,325,Wunderground v.1.15,2013-08-22 20:25:00,
2013-08-22 15:30:00,79.9,72.8,30.01,ESE,102,9.0,9.0,79,0.00,,,0.00,374,Wunderground v.1.15,2013-08-22 20:30:00,
2013-08-22 15:40:00,80.2,73.5,30.02,ESE,103,8.0,8.0,80,0.00,,,0.00,357,Wunderground v.1.15,2013-08-22 20:40:00,
2013-08-22 15:45:00,80.2,73.1,30.02,ESE,107,8.0,10.0,79,0.00,,,0.00,339,Wunderground v.1.15,2013-08-22 20:45:00,
2013-08-22 15:55:00,79.8,73.1,30.02,East,101,7.0,8.0,80,0.00,,,0.00,265,Wunderground v.1.15,2013-08-22 20:55:00,
2013-08-22 16:00:00,79.5,73.2,30.02,ESE,105,7.0,11.0,81,0.00,,,0.00,253,Wunderground v.1.15,2013-08-22 21:00:00,
2013-08-22 16:05:00,79.4,73.1,30.02,ESE,116,7.0,12.0,81,0.00,,,0.00,253,Wunderground v.1.15,2013-08-22 21:05:00,
2013-08-22 16:10:00,79.1,72.8,30.02,East,98,9.0,9.0,81,0.00,,,0.00,223,Wunderground v.1.15,2013-08-22 21:10:00,
2013-08-22 16:15:00,78.8,72.5,30.03,ESE,111,9.0,9.0,81,0.00,,,0.00,199,Wunderground v.1.15,2013-08-22 21:15:00,
2013-08-22 16:25:00,78.5,72.5,30.03,ESE,115,6.0,7.0,82,0.00,,,0.00,181,Wunderground v.1.15,2013-08-22 21:25:00,
2013-08-22 16:30:00,78.5,72.5,30.03,ESE,113,6.0,6.0,82,0.00,,,0.00,169,Wunderground v.1.15,2013-08-22 21:30:00,
2013-08-22 16:35:00,78.4,72.1,30.02,ESE,120,6.0,11.0,81,0.00,,,0.00,144,Wunderground v.1.15,2013-08-22 21:35:00,
2013-08-22 16:40:00,78.3,72.0,30.02,ESE,113,7.0,7.0,81,0.00,,,0.00,125,Wunderground v.1.15,2013-08-22 21:40:00,
2013-08-22 16:45:00,78.2,71.9,30.02,ESE,117,8.0,8.0,81,0.00,,,0.00,114,Wunderground v.1.15,2013-08-22 21:45:00,
2013-08-22 16:50:00,78.0,71.7,30.01,ESE,120,7.0,10.0,81,0.00,,,0.00,109,Wunderground v.1.15,2013-08-22 21:50:00,
2013-08-22 17:00:00,77.8,71.9,30.01,ESE,115,6.0,6.0,82,0.00,,,0.00,118,Wunderground v.1.15,2013-08-22 22:00:00,
2013-08-22 17:05:00,77.7,72.1,30.01,ESE,118,5.0,6.0,83,0.00,,,0.00,134,Wunderground v.1.15,2013-08-22 22:05:00,
2013-08-22 17:10:00,77.6,72.0,30.01,ESE,118,5.0,5.0,83,0.00,,,0.00,130,Wunderground v.1.15,2013-08-22 22:10:00,
2013-08-22 17:15:00,77.6,72.0,30.01,ESE,118,4.0,5.0,83,0.00,,,0.00,118,Wunderground v.1.15,2013-08-22 22:15:00,
2013-08-22 17:20:00,77.6,72.0,30.01,ESE,118,4.0,4.0,83,0.00,,,0.00,111,Wunderground v.1.15,2013-08-22 22:20:00,
2013-08-22 17:30:00,77.7,72.1,30.01,ESE,122,4.0,4.0,83,0.00,,,0.00,153,Wunderground v.1.15,2013-08-22 22:30:00,
2013-08-22 17:35:00,77.7,72.1,30.01,SE,131,4.0,4.0,83,0.00,,,0.00,172,Wunderground v.1.15,2013-08-22 22:35:00,
2013-08-22 17:40:00,77.8,72.2,30.01,SE,134,4.0,5.0,83,0.00,,,0.00,148,Wunderground v.1.15,2013-08-22 22:40:00,
2013-08-22 17:45:00,77.9,72.3,30.01,SE,134,3.0,5.0,83,0.00,,,0.00,104,Wunderground v.1.15,2013-08-22 22:45:00,
2013-08-22 17:50:00,77.9,72.0,30.01,SE,134,2.0,2.0,82,0.00,,,0.00,107,Wunderground v.1.15,2013-08-22 22:50:00,
2013-08-22 17:55:00,77.9,72.0,30.02,SE,134,1.0,2.0,82,0.00,,,0.00,120,Wunderground v.1.15,2013-08-22 22:55:00,
2013-08-22 18:05:00,78.0,72.1,30.01,SE,134,0.0,1.0,82,0.00,,,0.00,127,Wunderground v.1.15,2013-08-22 23:05:00,
2013-08-22 18:10:00,78.0,72.1,30.01,SE,134,0.0,0.0,82,0.00,,,0.00,114,Wunderground v.1.15,2013-08-22 23:10:00,
2013-08-22 18:15:00,78.1,72.2,30.01,SE,134,0.0,0.0,82,0.00,,,0.00,102,Wunderground v.1.15,2013-08-22 23:15:00,
2013-08-22 18:20:00,78.1,72.2,30.01,SE,134,0.0,0.0,82,0.00,,,0.00,90,Wunderground v.1.15,2013-08-22 23:20:00,
2013-08-22 18:25:00,78.1,72.2,30.01,SE,134,0.0,0.0,82,0.00,,,0.00,83,Wunderground v.1.15,2013-08-22 23:25:00,
2013-08-22 18:35:00,78.2,72.3,30.01,SE,134,0.0,0.0,82,0.00,,,0.00,70,Wunderground v.1.15,2013-08-22 23:35:00,
2013-08-22 18:40:00,78.2,72.3,30.01,SE,134,0.0,0.0,82,0.00,,,0.00,69,Wunderground v.1.15,2013-08-22 23:40:00,
2013-08-22 18:45:00,78.2,72.3,30.01,SE,134,0.0,0.0,82,0.00,,,0.00,70,Wunderground v.1.15,2013-08-22 23:45:00,
2013-08-22 18:50:00,78.2,72.3,30.00,SE,134,0.0,0.0,82,0.00,,,0.00,81,Wunderground v.1.15,2013-08-22 23:50:00,
2013-08-22 18:55:00,78.2,72.3,30.00,SE,134,0.0,0.0,82,0.00,,,0.00,88,Wunderground v.1.15,2013-08-22 23:55:00,
2013-08-22 19:00:00,78.2,72.6,30.01,SE,134,0.0,0.0,83,0.00,,,0.00,76,Wunderground v.1.15,2013-08-23 00:00:00,
2013-08-22 19:05:00,78.2,72.6,30.01,SE,134,0.0,0.0,83,0.00,,,0.00,60,Wunderground v.1.15,2013-08-23 00:05:00,
2013-08-22 19:10:00,78.1,72.2,30.00,SE,140,0.0,0.0,82,0.00,,,0.00,49,Wunderground v.1.15,2013-08-23 00:10:00,
2013-08-22 19:15:00,78.0,72.1,30.00,SE,140,0.0,0.0,82,0.00,,,0.00,39,Wunderground v.1.15,2013-08-23 00:15:00,
2013-08-22 19:20:00,77.9,72.3,30.00,SE,140,0.0,0.0,83,0.00,,,0.00,28,Wunderground v.1.15,2013-08-23 00:20:00,
2013-08-22 19:25:00,77.9,72.7,30.01,SE,140,0.0,0.0,84,0.00,,,0.00,19,Wunderground v.1.15,2013-08-23 00:25:00,
2013-08-22 19:35:00,77.7,72.1,30.01,SE,140,0.0,0.0,83,0.00,,,0.00,7,Wunderground v.1.15,2013-08-23 00:35:00,
2013-08-22 19:40:00,77.5,71.9,30.01,SE,140,0.0,0.0,83,0.00,,,0.00,5,Wunderground v.1.15,2013-08-23 00:40:00,
2013-08-22 19:45:00,77.4,71.8,30.01,SE,140,0.0,0.0,83,0.00,,,0.00,0,Wunderground v.1.15,2013-08-23 00:45:00,
2013-08-22 19:50:00,77.3,72.4,30.01,SE,140,0.0,0.0,85,0.00,,,0.00,0,Wunderground v.1.15,2013-08-23 00:50:00,
2013-08-22 19:55:00,77.1,72.6,30.01,SE,140,0.0,0.0,86,0.00,,,0.00,0,Wunderground v.1.15,2013-08-23 00:55:00,
2013-08-22 20:00:00,76.8,72.3,30.01,SE,140,0.0,0.0,86,0.00,,,0.00,0,Wunderground v.1.15,2013-08-23 01:00:00,
2013-08-22 20:10:00,76.3,72.5,30.01,SE,140,0.0,0.0,88,0.00,,,0.00,0,Wunderground v.1.15,2013-08-23 01:10:00,
2013-08-22 20:15:00,76.0,72.2,30.01,SE,140,0.0,0.0,88,0.00,,,0.00,0,Wunderground v.1.15,2013-08-23 01:15:00,
2013-08-22 20:20:00,75.7,72.2,30.01,SE,140,0.0,0.0,89,0.00,,,0.00,0,Wunderground v.1.15,2013-08-23 01:20:00,
2013-08-22 20:25:00,75.5,72.0,30.02,SE,140,0.0,0.0,89,0.00,,,0.00,0,Wunderground v.1.15,2013-08-23 01:25:00,
2013-08-22 20:30:00,75.3,71.8,30.03,SE,140,0.0,0.0,89,0.00,,,0.00,0,Wunderground v.1.15,2013-08-23 01:30:00,
2013-08-22 20:35:00,75.2,71.7,30.03,SE,140,0.0,0.0,89,0.00,,,0.00,0,Wunderground v.1.15,2013-08-23 01:35:00,
2013-08-22 20:40:00,75.0,71.9,30.03,SE,140,0.0,0.0,90,0.00,,,0.00,0,Wunderground v.1.15,2013-08-23 01:40:00,
2013-08-22 20:45:00,74.8,71.7,30.03,SE,140,0.0,0.0,90,0.00,,,0.00,0,Wunderground v.1.15,2013-08-23 01:45:00,
2013-08-22 20:50:00,74.7,71.6,30.03,SE,140,0.0,0.0,90,0.00,,,0.00,0,Wunderground v.1.15,2013-08-23 01:50:00,
2013-08-22 20:55:00,74.6,71.5,30.04,SE,140,0.0,0.0,90,0.00,,,0.00,0,Wunderground v.1.15,2013-08-23 01:55:00,
2013-08-22 21:00:00,74.5,71.4,30.04,SE,140,0.0,0.0,90,0.00,,,0.00,0,Wunderground v.1.15,2013-08-23 02:00:00,
2013-08-22 21:10:00,74.3,71.2,30.04,SE,140,0.0,0.0,90,0.00,,,0.00,0,Wunderground v.1.15,2013-08-23 02:10:00,
2013-08-22 21:20:00,74.2,71.1,30.05,SE,140,0.0,0.0,90,0.00,,,0.00,0,Wunderground v.1.15,2013-08-23 02:20:00,
2013-08-22 21:25:00,74.1,71.3,30.04,SE,140,0.0,0.0,91,0.00,,,0.00,0,Wunderground v.1.15,2013-08-23 02:25:00,
2013-08-22 21:30:00,74.0,71.2,30.04,SE,140,0.0,0.0,91,0.00,,,0.00,0,Wunderground v.1.15,2013-08-23 02:30:00,
2013-08-22 21:35:00,73.9,71.1,30.05,SE,140,0.0,0.0,91,0.00,,,0.00,0,Wunderground v.1.15,2013-08-23 02:35:00,
2013-08-22 21:40:00,73.9,71.1,30.05,SE,140,0.0,0.0,91,0.00,,,0.00,0,Wunderground v.1.15,2013-08-23 02:40:00,
2013-08-22 21:45:00,73.8,71.0,30.05,SE,140,0.0,0.0,91,0.00,,,0.00,0,Wunderground v.1.15,2013-08-23 02:45:00,
2013-08-22 21:50:00,73.7,70.9,30.05,SE,140,0.0,0.0,91,0.00,,,0.00,0,Wunderground v.1.15,2013-08-23 02:50:00,
2013-08-22 21:55:00,73.6,70.8,30.05,SE,140,0.0,0.0,91,0.00,,,0.00,0,Wunderground v.1.15,2013-08-23 02:55:00,
2013-08-22 22:00:00,73.5,70.7,30.05,SE,140,0.0,0.0,91,0.00,,,0.00,0,Wunderground v.1.15,2013-08-23 03:00:00,
2013-08-22 22:10:00,73.3,70.5,30.05,SE,140,0.0,0.0,91,0.00,,,0.00,0,Wunderground v.1.15,2013-08-23 03:10:00,
2013-08-22 22:15:00,73.2,70.4,30.05,SE,140,0.0,0.0,91,0.00,,,0.00,0,Wunderground v.1.15,2013-08-23 03:15:00,
2013-08-22 22:25:00,73.1,70.3,30.05,SE,140,0.0,0.0,91,0.00,,,0.00,0,Wunderground v.1.15,2013-08-23 03:25:00,
2013-08-22 22:30:00,73.1,70.3,30.06,SE,140,0.0,0.0,91,0.00,,,0.00,0,Wunderground v.1.15,2013-08-23 03:30:00,
2013-08-22 22:35:00,73.0,70.2,30.06,SE,140,0.0,1.0,91,0.00,,,0.00,0,Wunderground v.1.15,2013-08-23 03:35:00,
2013-08-22 22:40:00,73.0,70.2,30.06,SE,139,1.0,2.0,91,0.00,,,0.00,0,Wunderground v.1.15,2013-08-23 03:40:00,
2013-08-22 22:45:00,72.8,70.0,30.06,SE,134,3.0,3.0,91,0.00,,,0.00,0,Wunderground v.1.15,2013-08-23 03:45:00,
2013-08-22 22:50:00,72.7,69.9,30.06,SE,132,2.0,2.0,91,0.00,,,0.00,0,Wunderground v.1.15,2013-08-23 03:50:00,
2013-08-22 22:55:00,72.6,69.8,30.05,SE,131,2.0,2.0,91,0.00,,,0.00,0,Wunderground v.1.15,2013-08-23 03:55:00,
2013-08-22 23:00:00,72.4,69.6,30.05,ESE,123,3.0,4.0,91,0.00,,,0.00,0,Wunderground v.1.15,2013-08-23 04:00:00,
2013-08-22 23:05:00,72.2,69.7,30.05,ESE,117,3.0,4.0,92,0.00,,,0.00,0,Wunderground v.1.15,2013-08-23 04:05:00,
2013-08-22 23:10:00,72.0,69.5,30.06,ESE,113,3.0,4.0,92,0.00,,,0.00,0,Wunderground v.1.15,2013-08-23 04:10:00,
2013-08-22 23:15:00,71.8,69.3,30.05,ESE,111,3.0,4.0,92,0.00,,,0.00,0,Wunderground v.1.15,2013-08-23 04:15:00,
2013-08-22 23:20:00,71.6,69.2,30.05,ESE,111,2.0,2.0,92,0.00,,,0.00,0,Wunderground v.1.15,2013-08-23 04:20:00,
2013-08-22 23:25:00,71.5,69.1,30.06,ESE,111,2.0,3.0,92,0.00,,,0.00,0,Wunderground v.1.15,2013-08-23 04:25:00,
2013-08-22 23:30:00,71.4,69.0,30.06,ESE,111,2.0,2.0,92,0.00,,,0.00,0,Wunderground v.1.15,2013-08-23 04:30:00,
2013-08-22 23:35:00,71.3,68.9,30.06,ESE,111,2.0,3.0,92,0.00,,,0.00,0,Wunderground v.1.15,2013-08-23 04:35:00,
2013-08-22 23:40:00,71.3,68.9,30.06,ESE,111,2.0,2.0,92,0.00,,,0.00,0,Wunderground v.1.15,2013-08-23 04:40:00,
2013-08-22 23:45:00,71.3,68.9,30.06,ESE,111,2.0,2.0,92,0.00,,,0.00,0,Wunderground v.1.15,2013-08-23 04:45:00,
2013-08-22 23:50:00,71.3,68.5,30.06,ESE,111,2.0,4.0,91,0.00,,,0.00,0,Wunderground v.1.15,2013-08-23 04:50:00,
2013-08-22 23:55:00,71.2,68.4,30.06,ESE,111,2.0,4.0,91,0.00,,,0.00,0,Wunderground v.1.15,2013-08-23 04:55:00,